createdAt,value
2022-08-18T00:01:05.765Z,24.32
2022-08-18T00:03:53.549Z,24.49
2022-08-18T00:06:19.989Z,24.30
2022-08-18T00:08:46.652Z,24.37
2022-08-18T00:11:13.337Z,24.37
2022-08-18T00:13:39.941Z,24.85
2022-08-18T00:16:06.940Z,24.49
2022-08-18T00:18:33.618Z,24.36
2022-08-18T00:21:02.309Z,24.51
2022-08-18T00:23:29.878Z,24.67
2022-08-18T00:25:59.566Z,24.42
2022-08-18T00:28:26.600Z,24.40
2022-08-18T00:30:54.022Z,24.79
2022-08-18T00:33:21.551Z,24.56
2022-08-18T00:35:49.124Z,24.68
2022-08-18T00:38:24.991Z,24.65
2022-08-18T00:40:54.445Z,24.70
2022-08-18T00:43:32.498Z,24.59
2022-08-18T00:45:59.321Z,24.61
2022-08-18T00:48:28.625Z,24.47
2022-08-18T00:51:02.508Z,24.55
2022-08-18T00:53:31.359Z,24.29
2022-08-18T00:56:05.240Z,24.44
2022-08-18T00:58:41.015Z,24.54
2022-08-18T01:01:08.734Z,24.40
2022-08-18T01:03:39.915Z,24.66
2022-08-18T01:06:21.707Z,24.61
2022-08-18T01:08:48.396Z,24.68
2022-08-18T01:11:15.271Z,24.29
2022-08-18T01:13:43.425Z,24.50
2022-08-18T01:16:36.614Z,24.42
2022-08-18T01:19:23.210Z,24.37
2022-08-18T01:22:00.930Z,24.57
2022-08-18T01:24:52.244Z,24.35
2022-08-18T01:27:19.125Z,24.35
2022-08-18T01:29:48.312Z,24.22
2022-08-18T01:32:22.732Z,24.45
2022-08-18T01:34:51.863Z,24.52
2022-08-18T01:37:24.234Z,24.49
2022-08-18T01:41:23.171Z,24.35
2022-08-18T01:42:39.483Z,24.25
2022-08-18T01:45:08.171Z,24.26
2022-08-18T01:47:47.927Z,24.26
2022-08-18T01:50:23.004Z,24.44
2022-08-18T01:52:50.775Z,24.39
2022-08-18T01:55:18.159Z,24.41
2022-08-18T01:57:45.786Z,24.31
2022-08-18T02:00:15.240Z,24.34
2022-08-18T02:02:42.509Z,24.37
2022-08-18T02:05:21.478Z,24.32
2022-08-18T02:07:48.233Z,24.02
2022-08-18T02:10:20.796Z,24.35
2022-08-18T02:12:47.503Z,24.31
2022-08-18T02:15:14.352Z,24.40
2022-08-18T02:17:44.175Z,23.97
2022-08-18T02:20:14.890Z,24.11
2022-08-18T02:22:42.315Z,24.12
2022-08-18T02:25:10.785Z,24.01
2022-08-18T02:27:37.965Z,24.13
2022-08-18T02:30:08.235Z,24.35
2022-08-18T02:32:35.475Z,24.64
2022-08-18T02:35:08.283Z,24.74
2022-08-18T02:37:39.621Z,25.00
2022-08-18T02:40:11.271Z,23.91
2022-08-18T02:42:42.195Z,24.36
2022-08-18T02:45:09.727Z,24.39
2022-08-18T02:47:36.672Z,24.19
2022-08-18T02:50:04.128Z,24.24
2022-08-18T02:52:33.735Z,24.02
2022-08-18T02:55:03.647Z,24.25
2022-08-18T02:57:31.581Z,24.00
2022-08-18T02:59:59.733Z,24.29
2022-08-18T03:02:26.490Z,24.02
2022-08-18T03:04:53.360Z,24.18
2022-08-18T03:07:20.059Z,23.92
2022-08-18T03:09:46.743Z,24.11
2022-08-18T03:12:13.479Z,23.70
2022-08-18T03:14:40.232Z,23.55
2022-08-18T03:17:09.057Z,24.00
2022-08-18T03:19:36.753Z,23.91
2022-08-18T03:22:16.081Z,23.83
2022-08-18T03:24:54.014Z,24.20
2022-08-18T03:27:21.057Z,23.86
2022-08-18T03:29:50.171Z,23.86
2022-08-18T03:32:17.318Z,24.02
2022-08-18T03:34:44.018Z,23.83
2022-08-18T03:37:10.779Z,23.82
2022-08-18T03:39:37.544Z,24.21
2022-08-18T03:42:04.460Z,23.84
2022-08-18T03:44:33.906Z,24.46
2022-08-18T03:47:03.742Z,24.13
2022-08-18T03:49:33.867Z,24.20
2022-08-18T03:52:01.496Z,24.26
2022-08-18T03:54:29.654Z,24.18
2022-08-18T03:56:56.530Z,24.11
2022-08-18T03:59:25.529Z,24.08
2022-08-18T04:01:54.983Z,24.25
2022-08-18T04:04:25.236Z,23.85
2022-08-18T04:06:58.993Z,23.83
2022-08-18T04:09:29.061Z,23.60
2022-08-18T04:11:57.422Z,23.70
2022-08-18T04:14:26.021Z,23.53
2022-08-18T04:16:53.183Z,23.93
2022-08-18T04:19:27.432Z,24.44
2022-08-18T04:21:56.966Z,24.74
2022-08-18T04:24:26.183Z,24.30
2022-08-18T04:26:53.258Z,24.04
2022-08-18T04:29:21.838Z,23.89
2022-08-18T04:31:50.381Z,23.63
2022-08-18T04:34:18.542Z,23.66
2022-08-18T04:36:45.248Z,23.68
2022-08-18T04:39:13.504Z,24.05
2022-08-18T04:41:43.565Z,24.37
2022-08-18T04:44:11.854Z,23.94
2022-08-18T04:46:42.300Z,23.98
2022-08-18T04:49:11.163Z,23.85
2022-08-18T04:52:36.890Z,23.75
2022-08-18T04:54:29.373Z,23.97
2022-08-18T04:56:55.981Z,23.79
2022-08-18T04:59:23.108Z,24.12
2022-08-18T05:01:49.756Z,24.19
2022-08-18T05:04:17.764Z,23.97
2022-08-18T05:06:45.451Z,24.19
2022-08-18T05:09:16.574Z,24.29
2022-08-18T05:11:44.621Z,23.86
2022-08-18T05:14:12.117Z,24.24
2022-08-18T05:16:47.714Z,24.32
2022-08-18T05:19:21.974Z,24.21
2022-08-18T05:21:51.547Z,24.41
2022-08-18T05:24:21.522Z,24.84
2022-08-18T05:26:49.435Z,24.74
2022-08-18T05:29:19.101Z,24.79
2022-08-18T05:31:46.459Z,25.14
2022-08-18T05:34:13.136Z,24.76
2022-08-18T05:36:48.523Z,24.77
2022-08-18T05:39:23.889Z,24.90
2022-08-18T05:41:52.862Z,25.46
2022-08-18T05:44:28.379Z,25.40
2022-08-18T05:46:58.913Z,24.94
2022-08-18T05:49:27.070Z,25.29
2022-08-18T05:51:59.104Z,25.76
2022-08-18T05:54:53.446Z,25.82
2022-08-18T05:57:22.459Z,25.48
2022-08-18T05:59:54.076Z,25.24
2022-08-18T06:02:30.311Z,25.15
2022-08-18T06:05:04.439Z,25.23
2022-08-18T06:07:54.496Z,25.04
2022-08-18T06:10:21.771Z,24.93
2022-08-18T06:12:51.721Z,25.03
2022-08-18T06:15:55.731Z,24.94
2022-08-18T06:18:43.145Z,25.10
2022-08-18T06:21:29.844Z,25.22
2022-08-18T06:24:12.748Z,25.70
2022-08-18T06:27:10.014Z,25.60
2022-08-18T06:29:47.629Z,25.60
2022-08-18T06:32:35.987Z,25.76
2022-08-18T06:35:11.495Z,25.75
2022-08-18T06:38:14.693Z,25.68
2022-08-18T06:40:41.971Z,25.99
2022-08-18T06:43:15.837Z,25.91
2022-08-18T06:45:50.412Z,25.85
2022-08-18T06:48:43.810Z,25.87
2022-08-18T06:51:14.737Z,25.98
2022-08-18T06:53:52.450Z,25.94
2022-08-18T06:56:39.389Z,26.03
2022-08-18T06:59:41.335Z,26.37
2022-08-18T07:02:25.745Z,26.75
2022-08-18T07:05:00.584Z,27.31
2022-08-18T07:07:40.271Z,27.14
2022-08-18T07:10:16.431Z,28.03
2022-08-18T07:12:42.999Z,28.34
2022-08-18T07:15:12.813Z,28.62
2022-08-18T07:17:42.746Z,28.86
2022-08-18T07:20:21.746Z,28.81
2022-08-18T07:23:00.144Z,29.39
2022-08-18T07:25:37.822Z,29.64
2022-08-18T07:28:05.148Z,29.53
2022-08-18T07:30:36.893Z,30.07
2022-08-18T07:33:21.706Z,29.91
2022-08-18T07:35:54.816Z,29.67
2022-08-18T07:38:43.157Z,29.39
2022-08-18T07:41:17.110Z,28.77
2022-08-18T07:43:52.731Z,28.27
2022-08-18T07:46:35.184Z,28.33
2022-08-18T07:49:05.350Z,28.12
2022-08-18T07:51:47.718Z,28.15
2022-08-18T07:54:50.478Z,27.87
2022-08-18T07:57:23.941Z,27.76
2022-08-18T07:59:59.293Z,27.74
2022-08-18T08:02:55.171Z,27.30
2022-08-18T08:05:31.432Z,27.70
2022-08-18T08:08:10.180Z,27.25
2022-08-18T08:11:16.855Z,27.34
2022-08-18T08:13:58.670Z,27.16
2022-08-18T08:16:46.857Z,27.31
2022-08-18T08:20:00.181Z,27.43
2022-08-18T08:22:44.225Z,26.82
2022-08-18T08:25:45.793Z,27.04
2022-08-18T08:28:39.659Z,26.99
2022-08-18T08:31:37.302Z,27.36
2022-08-18T08:34:37.978Z,27.65
2022-08-18T08:37:14.843Z,27.17
2022-08-18T08:40:09.395Z,27.54
2022-08-18T08:43:03.132Z,27.45
2022-08-18T08:45:36.671Z,27.01
2022-08-18T08:48:14.485Z,27.39
2022-08-18T08:50:55.271Z,27.48
2022-08-18T08:53:42.897Z,27.70
2022-08-18T08:56:14.667Z,27.75
2022-08-18T08:58:49.627Z,27.39
2022-08-18T09:01:45.341Z,27.23
2022-08-18T09:04:55.791Z,27.39
2022-08-18T09:07:38.248Z,27.10
2022-08-18T09:10:08.131Z,27.50
2022-08-18T09:12:41.342Z,27.53
2022-08-18T09:15:21.164Z,27.70
2022-08-18T09:17:58.166Z,27.80
2022-08-18T09:20:49.423Z,27.58
2022-08-18T09:23:32.761Z,27.69
2022-08-18T09:26:45.525Z,27.90
2022-08-18T09:29:27.256Z,28.35
2022-08-18T09:32:18.541Z,28.17
2022-08-18T09:34:48.473Z,28.19
2022-08-18T09:37:24.446Z,28.20
2022-08-18T09:40:44.445Z,28.37
2022-08-18T09:43:29.183Z,28.15
2022-08-18T09:46:04.347Z,28.18
2022-08-18T09:48:34.188Z,28.89
2022-08-18T09:51:17.577Z,28.42
2022-08-18T09:53:47.767Z,28.54
2022-08-18T09:56:19.885Z,28.32
2022-08-18T09:59:02.133Z,28.28
2022-08-18T10:01:36.744Z,28.41
2022-08-18T10:04:16.222Z,28.61
2022-08-18T10:06:49.675Z,28.97
2022-08-18T10:09:46.412Z,28.87
2022-08-18T10:12:41.428Z,28.76
2022-08-18T10:15:33.415Z,29.60
2022-08-18T10:18:12.823Z,29.80
2022-08-18T10:20:57.349Z,29.86
2022-08-18T10:24:02.774Z,30.26
2022-08-18T10:26:38.420Z,30.53
2022-08-18T10:29:10.998Z,30.17
2022-08-18T10:31:59.892Z,30.02
2022-08-18T10:34:38.704Z,29.72
2022-08-18T10:37:34.001Z,29.77
2022-08-18T10:40:09.452Z,29.95
2022-08-18T10:42:53.542Z,30.35
2022-08-18T10:48:30.255Z,30.45
2022-08-18T10:51:12.643Z,30.57
2022-08-18T10:53:58.292Z,30.11
2022-08-18T10:56:49.877Z,30.12
2022-08-18T10:59:48.936Z,30.28
2022-08-18T11:02:29.671Z,30.53
2022-08-18T11:05:00.451Z,30.31
2022-08-18T11:07:30.938Z,30.56
2022-08-18T11:10:29.057Z,30.55
2022-08-18T11:13:12.023Z,30.73
2022-08-18T11:15:57.097Z,29.99
2022-08-18T11:18:49.735Z,30.88
2022-08-18T11:21:42.119Z,30.43
2022-08-18T11:24:27.130Z,30.35
2022-08-18T11:26:55.919Z,30.09
2022-08-18T11:29:28.305Z,31.06
2022-08-18T11:32:11.812Z,31.13
2022-08-18T11:34:52.980Z,31.20
2022-08-18T11:37:51.508Z,31.08
2022-08-18T11:41:09.173Z,31.02
2022-08-18T11:43:41.005Z,31.61
2022-08-18T11:46:31.948Z,31.64
2022-08-18T11:49:13.761Z,31.48
2022-08-18T11:51:56.560Z,31.66
2022-08-18T11:54:35.336Z,31.37
2022-08-18T11:57:46.645Z,31.83
2022-08-18T12:00:42.831Z,32.03
2022-08-18T12:03:10.250Z,32.42
2022-08-18T12:05:55.737Z,32.68
2022-08-18T12:08:57.443Z,32.32
2022-08-18T12:11:36.545Z,32.26
2022-08-18T12:14:31.467Z,32.53
2022-08-18T12:17:01.719Z,32.27
2022-08-18T12:19:31.061Z,32.11
2022-08-18T12:22:00.228Z,32.12
2022-08-18T12:24:34.533Z,32.51
2022-08-18T12:27:21.007Z,32.40
2022-08-18T12:29:53.276Z,32.65
2022-08-18T12:32:48.729Z,32.74
2022-08-18T12:35:11.859Z,33.09
2022-08-18T12:37:59.068Z,33.53
2022-08-18T12:40:27.451Z,33.30
2022-08-18T12:42:54.285Z,32.60
2022-08-18T12:45:23.187Z,32.92
2022-08-18T12:47:51.735Z,33.05
2022-08-18T12:50:19.749Z,32.81
2022-08-18T12:52:46.888Z,32.85
2022-08-18T12:55:22.187Z,32.89
2022-08-18T12:57:53.218Z,33.15
2022-08-18T13:00:28.163Z,33.38
2022-08-18T13:02:56.635Z,33.18
2022-08-18T13:05:27.525Z,32.63
2022-08-18T13:07:58.586Z,31.79
2022-08-18T13:10:42.773Z,32.24
2022-08-18T13:13:13.897Z,32.22
2022-08-18T13:15:44.287Z,32.48
2022-08-18T13:18:20.982Z,32.32
2022-08-18T13:20:59.244Z,32.19
2022-08-18T13:23:30.222Z,32.48
2022-08-18T13:26:02.141Z,32.54
2022-08-18T13:28:35.680Z,32.57
2022-08-18T13:31:06.055Z,32.61
2022-08-18T13:33:56.750Z,33.09
2022-08-18T13:36:24.200Z,33.14
2022-08-18T13:38:54.587Z,32.51
2022-08-18T13:43:52.352Z,32.88
2022-08-18T13:46:24.272Z,32.95
2022-08-18T13:49:03.107Z,32.96
2022-08-18T13:51:30.429Z,33.28
2022-08-18T13:54:17.363Z,33.12
2022-08-18T13:56:51.480Z,32.96
2022-08-18T13:59:18.715Z,32.59
2022-08-18T14:01:51.337Z,32.31
2022-08-18T14:04:21.042Z,32.48
2022-08-18T14:06:57.478Z,32.33
2022-08-18T14:09:37.022Z,32.17
2022-08-18T14:12:32.649Z,32.44
2022-08-18T14:15:00.007Z,32.53
2022-08-18T14:17:27.313Z,32.41
2022-08-18T14:20:15.204Z,32.05
2022-08-18T14:23:10.069Z,32.52
2022-08-18T14:25:55.274Z,32.48
2022-08-18T14:28:24.940Z,31.85
2022-08-18T14:30:54.883Z,32.33
2022-08-18T14:33:34.574Z,32.31
2022-08-18T14:36:10.281Z,32.74
2022-08-18T14:38:38.197Z,32.88
2022-08-18T14:41:09.874Z,32.62
2022-08-18T14:44:05.488Z,32.52
2022-08-18T14:46:30.021Z,32.73
2022-08-18T14:48:59.163Z,32.44
2022-08-18T14:51:27.306Z,32.45
2022-08-18T14:53:55.242Z,32.39
2022-08-18T14:56:24.436Z,32.02
2022-08-18T14:58:55.860Z,31.93
2022-08-18T15:01:23.271Z,31.61
2022-08-18T15:03:50.064Z,31.46
2022-08-18T15:06:26.933Z,31.50
2022-08-18T15:08:54.992Z,31.97
2022-08-18T15:11:24.810Z,31.75
2022-08-18T15:13:51.641Z,31.52
2022-08-18T15:16:31.703Z,31.43
2022-08-18T15:18:59.595Z,31.59
2022-08-18T15:21:46.921Z,31.68
2022-08-18T15:24:34.091Z,31.65
2022-08-18T15:30:06.670Z,31.47
2022-08-18T15:32:35.860Z,31.20
2022-08-18T15:35:11.816Z,31.22
2022-08-18T15:37:39.585Z,31.11
2022-08-18T15:40:21.806Z,31.03
2022-08-18T15:43:01.480Z,30.94
2022-08-18T15:45:35.281Z,30.79
2022-08-18T15:48:02.629Z,31.24
2022-08-18T15:50:30.227Z,31.40
2022-08-18T15:53:07.907Z,31.33
2022-08-18T15:55:38.860Z,31.23
2022-08-18T15:58:11.041Z,31.56
2022-08-18T16:00:45.489Z,31.22
2022-08-18T16:03:14.399Z,30.85
2022-08-18T16:05:47.902Z,30.54
2022-08-18T16:08:18.159Z,30.73
2022-08-18T16:10:45.574Z,31.05
2022-08-18T16:13:14.555Z,30.70
2022-08-18T16:15:46.914Z,30.83
2022-08-18T16:18:16.377Z,30.68
2022-08-18T16:20:43.973Z,30.51
2022-08-18T16:23:15.525Z,30.49
2022-08-18T16:25:43.239Z,30.65
2022-08-18T16:28:13.138Z,30.55
2022-08-18T16:30:40.639Z,30.46
2022-08-18T16:33:07.379Z,30.41
2022-08-18T16:35:35.572Z,30.44
2022-08-18T16:38:08.837Z,30.85
2022-08-18T16:40:36.458Z,30.63
2022-08-18T16:43:04.844Z,30.38
2022-08-18T16:45:33.557Z,30.14
2022-08-18T16:48:00.580Z,30.51
2022-08-18T16:50:28.107Z,30.24
2022-08-18T16:52:55.481Z,29.91
2022-08-18T16:55:22.122Z,30.09
2022-08-18T16:58:07.401Z,30.12
2022-08-18T17:00:55.276Z,29.87
2022-08-18T17:03:42.387Z,29.85
2022-08-18T17:06:12.222Z,30.12
2022-08-18T17:08:40.421Z,30.16
2022-08-18T17:11:11.586Z,29.66
2022-08-18T17:13:40.060Z,29.66
2022-08-18T17:16:08.271Z,29.77
2022-08-18T17:18:36.136Z,29.53
2022-08-18T17:21:08.480Z,29.32
2022-08-18T17:23:37.409Z,29.20
2022-08-18T17:26:09.261Z,29.33
2022-08-18T17:28:50.495Z,29.50
2022-08-18T17:31:24.563Z,29.37
2022-08-18T17:33:57.344Z,29.74
2022-08-18T17:36:52.568Z,29.32
2022-08-18T17:39:25.627Z,28.94
2022-08-18T17:42:10.740Z,29.09
2022-08-18T17:44:46.272Z,29.55
2022-08-18T17:47:38.143Z,29.55
2022-08-18T17:50:28.670Z,29.33
2022-08-18T17:53:06.245Z,29.25
2022-08-18T17:55:47.027Z,29.24
2022-08-18T17:58:26.515Z,29.20
2022-08-18T18:00:53.233Z,29.05
2022-08-18T18:03:20.124Z,29.03
2022-08-18T18:05:58.151Z,28.73
2022-08-18T18:08:53.500Z,29.05
2022-08-18T18:11:27.892Z,28.78
2022-08-18T18:13:54.712Z,28.62
2022-08-18T18:16:26.522Z,28.76
2022-08-18T18:19:06.123Z,28.50
2022-08-18T18:22:00.065Z,28.61
2022-08-18T18:24:30.961Z,28.23
2022-08-18T18:26:58.326Z,28.27
2022-08-18T18:29:32.404Z,28.37
2022-08-18T18:32:27.744Z,28.13
2022-08-18T18:35:25.928Z,28.00
2022-08-18T18:38:24.574Z,27.94
2022-08-18T18:41:02.525Z,27.69
2022-08-18T18:43:35.080Z,27.64
2022-08-18T18:46:18.960Z,27.64
2022-08-18T18:49:10.745Z,27.48
2022-08-18T18:51:52.400Z,27.70
2022-08-18T18:54:28.057Z,27.45
2022-08-18T18:56:56.514Z,27.22
2022-08-18T18:59:49.239Z,26.72
2022-08-18T19:02:33.780Z,26.81
2022-08-18T19:05:18.715Z,26.61
2022-08-18T19:08:03.860Z,26.82
2022-08-18T19:10:39.431Z,26.65
2022-08-18T19:13:24.832Z,27.00
2022-08-18T19:16:23.588Z,26.86
2022-08-18T19:19:38.205Z,26.67
2022-08-18T19:22:20.139Z,26.39
2022-08-18T19:25:08.630Z,26.44
2022-08-18T19:27:40.071Z,26.37
2022-08-18T19:30:12.617Z,26.34
2022-08-18T19:32:52.386Z,26.57
2022-08-18T19:35:34.274Z,26.36
2022-08-18T19:38:10.396Z,26.00
2022-08-18T19:40:45.299Z,26.18
2022-08-18T19:43:32.594Z,26.37
2022-08-18T19:46:17.625Z,26.03
2022-08-18T19:49:03.351Z,25.92
2022-08-18T19:51:39.929Z,25.96
2022-08-18T19:54:21.403Z,25.96
2022-08-18T19:57:03.714Z,25.74
2022-08-18T19:59:55.356Z,25.83
2022-08-18T20:02:50.547Z,25.97
2022-08-18T20:05:47.449Z,25.82
2022-08-18T20:08:14.045Z,25.59
2022-08-18T20:11:04.773Z,25.55
2022-08-18T20:13:43.401Z,25.47
2022-08-18T20:16:31.373Z,25.26
2022-08-18T20:19:31.730Z,25.18
2022-08-18T20:22:25.805Z,25.26
2022-08-18T20:25:04.565Z,25.27
2022-08-18T20:27:38.624Z,25.30
2022-08-18T20:30:08.806Z,25.50
2022-08-18T20:32:36.424Z,25.32
2022-08-18T20:35:25.511Z,25.36
2022-08-18T20:37:52.334Z,25.11
2022-08-18T20:40:47.851Z,25.27
2022-08-18T20:43:38.841Z,25.28
2022-08-18T20:46:41.368Z,25.11
2022-08-18T20:49:19.435Z,25.22
2022-08-18T20:51:59.062Z,25.10
2022-08-18T20:54:37.912Z,25.07
2022-08-18T20:57:11.550Z,25.01
2022-08-18T20:59:49.358Z,24.97
2022-08-18T21:02:34.868Z,24.92
2022-08-18T21:05:02.081Z,25.00
2022-08-18T21:07:37.756Z,25.21
2022-08-18T21:10:22.978Z,25.00
2022-08-18T21:12:53.717Z,24.63
2022-08-18T21:15:25.887Z,25.04
2022-08-18T21:18:01.070Z,25.07
2022-08-18T21:20:28.446Z,25.43
2022-08-18T21:23:10.991Z,25.49
2022-08-18T21:25:48.110Z,25.32
2022-08-18T21:28:14.849Z,25.18
2022-08-18T21:30:55.143Z,25.26
2022-08-18T21:33:22.306Z,24.96
2022-08-18T21:35:49.013Z,24.86
2022-08-18T21:38:25.708Z,24.91
2022-08-18T21:40:58.967Z,25.09
2022-08-18T21:43:42.165Z,24.79
2022-08-18T21:46:12.970Z,24.51
2022-08-18T21:48:50.090Z,24.66
2022-08-18T21:51:26.044Z,24.68
2022-08-18T21:53:54.542Z,24.71
2022-08-18T21:56:28.230Z,24.70
2022-08-18T21:59:09.712Z,24.71
2022-08-18T22:01:55.059Z,24.51
2022-08-18T22:04:30.051Z,24.65
2022-08-18T22:07:34.382Z,24.63
2022-08-18T22:10:24.929Z,24.44
2022-08-18T22:13:15.221Z,24.36
2022-08-18T22:15:43.394Z,24.46
2022-08-18T22:18:16.045Z,24.27
2022-08-18T22:20:42.737Z,24.36
2022-08-18T22:23:30.863Z,24.34
2022-08-18T22:26:08.741Z,24.32
2022-08-18T22:28:44.536Z,24.68
2022-08-18T22:31:11.053Z,24.83
2022-08-18T22:33:37.782Z,24.78
2022-08-18T22:36:05.091Z,24.55
2022-08-18T22:38:31.898Z,24.72
2022-08-18T22:41:01.444Z,24.67
2022-08-18T22:43:28.447Z,24.78
2022-08-18T22:45:55.132Z,25.03
2022-08-18T22:48:22.219Z,24.77
2022-08-18T22:50:49.617Z,24.73
2022-08-18T22:53:17.801Z,24.60
2022-08-18T22:55:45.985Z,24.54
2022-08-18T22:58:12.841Z,24.71
2022-08-18T23:00:42.713Z,24.75
2022-08-18T23:03:12.602Z,24.79
2022-08-18T23:05:39.369Z,24.47
2022-08-18T23:08:06.087Z,25.05
2022-08-18T23:10:32.768Z,24.60
2022-08-18T23:13:04.097Z,24.48
2022-08-18T23:15:49.353Z,24.64
2022-08-18T23:18:19.643Z,24.62
2022-08-18T23:20:48.668Z,24.45
2022-08-18T23:23:17.296Z,24.44
2022-08-18T23:25:44.400Z,24.63
2022-08-18T23:28:12.487Z,24.68
2022-08-18T23:30:40.381Z,24.55
2022-08-18T23:33:09.710Z,24.49
2022-08-18T23:35:38.008Z,24.40
2022-08-18T23:38:07.555Z,24.51
2022-08-18T23:40:36.060Z,24.64
2022-08-18T23:43:03.980Z,24.83
2022-08-18T23:45:30.628Z,24.67
2022-08-18T23:47:57.589Z,24.69
2022-08-18T23:50:24.410Z,24.70
2022-08-18T23:52:57.988Z,24.65
2022-08-18T23:55:26.259Z,24.53
2022-08-18T23:57:53.107Z,24.39
